默认 日期 大小 文件数 浏览量 最新下载 xml
2023..磁力链接相关资源由用户搜索指令自动获取,结果来源于网络,本站不存储任何资料,亦不承担任何责任,请于24小时内删除,搜索到413779个磁力,显示前4000条数据,用时109ms。
    {"Torrent Downloaded From UIndex.org .txt": 127, "High Tides S01E02 2023 2160p NF WEB-DL DDP5 1 H 265-HHWEB.mkv": 3644140845, "High Tides S01E02 2023 2160p NF WEB-DL DDP5 1 H 265-HHWEB.mkv.nfo": 958}
创建时间: 2026-04-27 15:09:33 大小:3.39 GB 文件数量:3 热度:0
    {"Ragna Crimson - S01E02 - L'inizio della storia [1080p H265][EAC3 JPN ITA Sub ITA][tt28685470] [WIKIRIP].mkv": 352301216}
创建时间: 2026-04-27 14:42:00 大小:335.98 MB 文件数量:1 热度:0
    {"Ragna Crimson - S01E01 - Il giorno in cui nacque il mietitore [1080p H265][EAC3 JPN ITA Sub ITA][tt28685470] [WIKIRIP].mkv": 855211115}
创建时间: 2026-04-27 14:41:53 大小:815.59 MB 文件数量:1 热度:0
    {"Torrent Downloaded From UIndex.org .txt": 129, "School Spirits 2023 S03E04 The Bereftest Club 1080p WEBRip 10bit DDP5 1 HEVC-d3g.mkv": 2050106711, "School Spirits 2023 S03E04 The Bereftest Club 1080p WEBRip 10bit DDP5 1 HEVC-d3g.mkv.nfo": 901}
创建时间: 2026-04-27 14:40:44 大小:1.91 GB 文件数量:3 热度:0
    ... 我來刷鍋!2023年的3P完整 ...
创建时间: 2026-04-27 14:14:01 大小:1.32 GB 文件数量:40 热度:0
    {"1 - Introduction": {"1 - Introduction.mp4": 75942829, "1 - Introduction English.vtt": 15281, "2 - Course GitHub Repository Links.html": 2188}, "40 - Terraform Debug": {"192 - Step01 Implement Terraform Debug.mp4": 57307745, "192 - Step01 Implement ...
创建时间: 2026-04-27 14:08:07 大小:15.46 GB 文件数量:419 热度:0
    {"Seasons.2023.1080p.NF.WEB-DL.x264. ...
创建时间: 2026-04-27 14:00:41 大小:3.89 GB 文件数量:4 热度:0
    {"仙逆.Renegade.Immortal.S01E137.2023.2160p.WEB-DL.H265.AAC- ...
创建时间: 2026-04-27 13:59:13 大小:1.06 GB 文件数量:4 热度:0
    {"cover.jpg": 1116834, "ALIO DIE ~ - Sublimitas - 02 Sedimented dreams.flac": 80361652, "ALIO DIE ~ - Sublimitas - 03 Yearning in beauty.flac": 24583595, "ALIO DIE ~ - Sublimitas - 01 Contemplative fields.flac": 134758974, "ALIO DIE ~ - Sublimitas - 04 ...
创建时间: 2026-04-27 13:53:52 大小:272.12 MB 文件数量:5 热度:0
    {"cover.jfif": 201996, "foo_dr.txt": 10823, "14. Joel Corry - Sorry.flac": 24968231, "03. Joel Corry - Hey DJ.flac": 20403886, "15. Joel Corry - Lonely.flac": 24423779, "16. Joel Corry, Mabel - I Wish.flac": 24341742, "07. Joel Corry, MNEK - Head & Heart. ...
创建时间: 2026-04-27 13:48:21 大小:349.18 MB 文件数量:19 热度:0
    {"Torrent Downloaded From UIndex.org .txt": 127, "Old Dads 2023 1080p NF WEB-DL DDP5 1 H 264-FLUX.mkv": 4313187231, "Old Dads 2023 1080p NF WEB-DL DDP5 1 H 264-FLUX.mkv.nfo": 1130}
创建时间: 2026-04-27 13:20:20 大小:4.02 GB 文件数量:3 热度:0
    ... Farming Life in Another World (2023) - S01E12 - Birth [Bluray ... "Farming Life in Another World (2023) - S01E10 - Princess Yuri [ ... "Farming Life in Another World (2023) - S01E02 - The First Villager ... "Farming Life in Another World (2023) - S01E07 - A Hospitable ...
创建时间: 2026-04-27 12:58:36 大小:2.55 GB 文件数量:12 热度:0
    ... 588480893, "Then.You.Run.2023.S01E02.576p.HMAX.WEB-DL ... 581500538, "Then.You.Run.2023.S01E03.576p.HMAX.WEB-DL ... 583961285, "Then.You.Run.2023.S01E04.576p.HMAX.WEB-DL ... 537066334, "Then.You.Run.2023.S01E05.576p.HMAX.WEB-DL ... , "Then.You.Run.2023.S01E06.576p.HMAX.WEB-DL ...
创建时间: 2026-04-27 12:09:41 大小:4.35 GB 文件数量:8 热度:0
    {"遮天.Shrouding.the.Heavens.S01E121.2023.1080p.WEB-DL.AAC.H264-OurTV.mp4": 540257851}
创建时间: 2026-04-27 11:41:31 大小:515.23 MB 文件数量:1 热度:0
    ... ": 147365, "screen0004.jpg": 84171}, "Bloodhounds.2023.S02E03.1080p.WEB.h264-BETTY ... UIndex.org .txt": 127, "bloodhounds.2023.s02e03.1080p.web.h264-betty ...
创建时间: 2026-04-27 11:39:18 大小:2.53 GB 文件数量:7 热度:0
    {"El Salón.De.Profesores.2023.1080P-Dual-Lat.mkv": 2057668474, "Descargar Películas, Series y Animes Gratis....url": 50, "El Salón.De.Profesores.2023.1080P-Dual-Lat_Track04.srt": 92895}
创建时间: 2026-04-27 11:34:59 大小:1.92 GB 文件数量:3 热度:0
    ... .Brother.is.Too.Steady.S01E137.2023.1080p.WEB-DL.H265.AAC ...
创建时间: 2026-04-27 11:24:33 大小:262.44 MB 文件数量:4 热度:0
    ... site.jpg": 38690, "Polako.Nikuda.2023.1080p.WEBRip.x264.AAC-[YTS ... .BZ].mp4": 1269407893, "Polako.Nikuda.2023.1080p.WEBRip.x264.AAC-[YTS ...
创建时间: 2026-04-27 10:46:59 大小:1.18 GB 文件数量:11 热度:0
    {"[超级裙底]最新2023上海车展各色美女模特 总有一款你喜欢.mp4": 95415378}
创建时间: 2026-04-27 10:45:58 大小:91 MB 文件数量:1 热度:0
    {"Torrent Downloaded From UIndex.org .txt": 129, "My.Mothers.Wedding.2023.1080p.AMZN.WEB-DL.DUAL.DDP5.1.H.264-TURG.mkv": 7057050968}
创建时间: 2026-04-27 10:21:54 大小:6.57 GB 文件数量:2 热度:0